createdAt,value
2018-05-21T00:01:42.739Z,16.70
2018-05-21T00:04:10.169Z,16.70
2018-05-21T00:06:37.637Z,16.60
2018-05-21T00:09:05.083Z,16.60
2018-05-21T00:11:32.546Z,16.40
2018-05-21T00:13:59.976Z,16.40
2018-05-21T00:16:27.418Z,16.40
2018-05-21T00:18:55.650Z,16.20
2018-05-21T00:21:23.106Z,16.20
2018-05-21T00:23:50.565Z,16.10
2018-05-21T00:26:18.177Z,16.10
2018-05-21T00:28:45.617Z,16.00
2018-05-21T00:31:13.073Z,16.10
2018-05-21T00:33:40.531Z,16.00
2018-05-21T00:36:07.957Z,16.00
2018-05-21T00:38:35.409Z,15.90
2018-05-21T00:41:02.901Z,15.90
2018-05-21T00:43:30.344Z,15.90
2018-05-21T00:45:57.794Z,15.80
2018-05-21T00:48:25.241Z,15.70
2018-05-21T00:50:52.677Z,15.60
2018-05-21T00:53:20.131Z,15.50
2018-05-21T00:55:47.564Z,15.50
2018-05-21T00:58:15.964Z,15.60
2018-05-21T01:00:43.392Z,15.60
2018-05-21T01:03:11.625Z,15.70
2018-05-21T01:05:39.093Z,15.70
2018-05-21T01:08:06.547Z,15.50
2018-05-21T01:10:33.998Z,15.50
2018-05-21T01:13:01.477Z,15.40
2018-05-21T01:15:28.924Z,15.40
2018-05-21T01:17:56.391Z,15.40
2018-05-21T01:20:23.872Z,15.50
2018-05-21T01:22:51.324Z,15.60
2018-05-21T01:25:18.772Z,15.50
2018-05-21T01:27:46.234Z,15.50
2018-05-21T01:30:13.676Z,15.50
2018-05-21T01:32:41.137Z,15.50
2018-05-21T01:35:08.568Z,15.50
2018-05-21T01:37:36.792Z,15.40
2018-05-21T01:40:04.469Z,15.40
2018-05-21T01:42:31.912Z,15.40
2018-05-21T01:44:59.348Z,15.30
2018-05-21T01:47:26.953Z,15.30
2018-05-21T01:49:54.388Z,15.20
2018-05-21T01:52:21.849Z,15.30
2018-05-21T01:54:49.311Z,15.30
2018-05-21T01:57:16.763Z,15.30
2018-05-21T01:59:44.223Z,15.20
2018-05-21T02:02:11.687Z,15.20
2018-05-21T02:04:39.139Z,15.20
2018-05-21T02:07:06.594Z,15.10
2018-05-21T02:09:34.029Z,15.10
2018-05-21T02:12:02.234Z,15.10
2018-05-21T02:14:29.696Z,15.10
2018-05-21T02:16:57.147Z,15.00
2018-05-21T02:19:24.600Z,15.00
2018-05-21T02:21:52.049Z,14.90
2018-05-21T02:24:19.524Z,14.90
2018-05-21T02:26:46.995Z,14.90
2018-05-21T02:29:14.437Z,14.90
2018-05-21T02:31:42.253Z,14.90
2018-05-21T02:34:09.714Z,14.90
2018-05-21T02:36:37.151Z,14.90
2018-05-21T02:39:05.280Z,14.90
2018-05-21T02:41:32.728Z,14.90
2018-05-21T02:44:00.193Z,14.80
2018-05-21T02:46:27.624Z,14.80
2018-05-21T02:48:55.075Z,14.80
2018-05-21T02:51:22.517Z,14.80
2018-05-21T02:53:49.989Z,14.80
2018-05-21T02:56:17.417Z,14.70
2018-05-21T02:58:45.622Z,14.70
2018-05-21T03:01:13.053Z,14.70
2018-05-21T03:03:40.521Z,14.70
2018-05-21T03:06:07.970Z,14.60
2018-05-21T03:08:35.444Z,14.70
2018-05-21T03:11:02.883Z,14.70
2018-05-21T03:13:30.336Z,14.60
2018-05-21T03:15:57.813Z,14.50
2018-05-21T03:18:25.256Z,14.50
2018-05-21T03:20:52.700Z,14.50
2018-05-21T03:23:20.166Z,14.50
2018-05-21T03:25:47.629Z,14.50
2018-05-21T03:28:15.096Z,14.40
2018-05-21T03:30:42.570Z,14.40
2018-05-21T03:33:10.781Z,14.40
2018-05-21T03:35:38.240Z,14.40
2018-05-21T03:38:05.716Z,14.40
2018-05-21T03:40:33.165Z,14.50
2018-05-21T03:43:01.404Z,14.40
2018-05-21T03:45:29.597Z,14.40
2018-05-21T03:47:57.075Z,14.40
2018-05-21T03:50:24.511Z,14.40
2018-05-21T03:52:51.952Z,14.40
2018-05-21T03:55:19.380Z,14.50
2018-05-21T03:57:46.818Z,14.50
2018-05-21T04:13:45.916Z,14.50
2018-05-21T04:16:13.377Z,14.40
2018-05-21T04:18:40.822Z,14.50
2018-05-21T04:21:08.242Z,14.40
2018-05-21T04:23:35.701Z,14.50
2018-05-21T04:26:03.161Z,14.50
2018-05-21T04:28:30.606Z,14.50
2018-05-21T04:30:58.032Z,14.60
2018-05-21T04:33:26.243Z,14.60
2018-05-21T04:35:53.676Z,14.50
2018-05-21T04:38:21.140Z,14.50
2018-05-21T04:40:48.579Z,14.60
2018-05-21T04:43:16.277Z,14.60
2018-05-21T04:45:43.717Z,14.60
2018-05-21T04:48:11.154Z,14.70
2018-05-21T04:50:39.372Z,14.70
2018-05-21T04:53:06.813Z,14.70
2018-05-21T04:55:34.278Z,14.80
2018-05-21T04:58:01.709Z,14.80
2018-05-21T05:00:32.080Z,14.80
2018-05-21T05:02:59.536Z,14.80
2018-05-21T05:05:27.037Z,14.80
2018-05-21T05:07:55.246Z,14.90
2018-05-21T05:10:22.684Z,14.90
2018-05-21T05:12:50.128Z,14.90
2018-05-21T05:15:17.569Z,15.00
2018-05-21T05:17:45.037Z,15.10
2018-05-21T05:20:12.489Z,15.10
2018-05-21T05:22:39.942Z,15.10
2018-05-21T05:25:07.405Z,15.20
2018-05-21T05:27:35.602Z,15.30
2018-05-21T05:30:03.049Z,15.30
2018-05-21T05:32:30.486Z,15.40
2018-05-21T05:34:57.948Z,15.40
2018-05-21T05:37:25.381Z,15.40
2018-05-21T05:39:52.844Z,15.50
2018-05-21T05:42:20.281Z,15.70
2018-05-21T05:44:47.744Z,16.00
2018-05-21T05:47:15.169Z,16.20
2018-05-21T05:49:42.633Z,16.20
2018-05-21T05:52:10.064Z,16.20
2018-05-21T05:54:37.517Z,16.20
2018-05-21T05:57:04.952Z,16.20
2018-05-21T05:59:32.449Z,16.30
2018-05-21T06:02:00.798Z,16.30
2018-05-21T06:04:28.244Z,16.30
2018-05-21T06:06:55.707Z,16.40
2018-05-21T06:09:23.161Z,16.40
2018-05-21T06:11:50.599Z,16.50
2018-05-21T06:14:18.069Z,16.50
2018-05-21T06:16:46.457Z,16.50
2018-05-21T06:19:13.898Z,16.50
2018-05-21T06:21:41.349Z,16.60
2018-05-21T06:24:08.814Z,16.70
2018-05-21T06:26:36.233Z,16.80
2018-05-21T06:29:03.672Z,16.80
2018-05-21T06:31:31.129Z,16.80
2018-05-21T06:33:58.614Z,16.90
2018-05-21T06:36:26.776Z,16.90
2018-05-21T06:38:54.216Z,16.90
2018-05-21T06:41:21.653Z,17.00
2018-05-21T06:43:49.865Z,17.10
2018-05-21T06:46:17.302Z,17.10
2018-05-21T06:48:44.733Z,17.10
2018-05-21T06:51:13.316Z,17.20
2018-05-21T06:53:40.744Z,17.30
2018-05-21T06:56:08.193Z,17.30
2018-05-21T06:58:35.619Z,17.40
2018-05-21T07:01:03.066Z,17.40
2018-05-21T07:03:30.501Z,17.50
2018-05-21T07:05:58.713Z,17.60
2018-05-21T07:08:26.150Z,17.60
2018-05-21T07:10:54.363Z,17.70
2018-05-21T07:13:21.912Z,17.70
2018-05-21T07:15:49.340Z,17.80
2018-05-21T07:18:17.658Z,18.00
2018-05-21T07:20:46.099Z,18.00
2018-05-21T07:23:14.297Z,18.20
2018-05-21T07:25:41.926Z,18.20
2018-05-21T07:28:09.384Z,18.30
2018-05-21T07:30:37.584Z,18.40
2018-05-21T07:33:05.025Z,18.40
2018-05-21T07:35:32.473Z,18.50
2018-05-21T07:37:59.915Z,18.50
2018-05-21T07:40:27.363Z,18.60
2018-05-21T07:42:54.793Z,18.70
2018-05-21T07:45:22.246Z,18.80
2018-05-21T07:47:49.880Z,18.90
2018-05-21T07:50:17.534Z,19.00
2018-05-21T07:52:44.973Z,19.10
2018-05-21T07:55:13.203Z,19.30
2018-05-21T07:57:40.630Z,19.20
2018-05-21T08:00:08.072Z,19.40
2018-05-21T08:02:35.497Z,19.50
2018-05-21T08:05:04.449Z,19.60
2018-05-21T08:07:31.892Z,19.60
2018-05-21T08:09:59.336Z,19.80
2018-05-21T08:12:26.781Z,19.90
2018-05-21T08:14:55.117Z,20.20
2018-05-21T08:17:22.475Z,20.20
2018-05-21T08:19:50.076Z,20.40
2018-05-21T08:22:17.560Z,20.50
2018-05-21T08:24:44.966Z,20.80
2018-05-21T08:27:12.402Z,21.10
2018-05-21T08:29:39.916Z,21.40
2018-05-21T08:32:08.276Z,21.70
2018-05-21T08:34:35.709Z,22.30
2018-05-21T08:37:03.200Z,22.90
2018-05-21T08:39:30.636Z,23.50
2018-05-21T08:41:58.076Z,24.30
2018-05-21T08:44:25.567Z,25.10
2018-05-21T08:46:53.049Z,25.90
2018-05-21T08:49:20.476Z,26.70
2018-05-21T08:51:47.920Z,27.30
2018-05-21T08:54:15.371Z,27.80
2018-05-21T08:56:42.849Z,28.30
2018-05-21T08:59:10.276Z,28.60
2018-05-21T09:01:37.740Z,28.90
2018-05-21T09:04:05.212Z,29.30
2018-05-21T09:06:32.648Z,29.60
2018-05-21T09:09:00.097Z,29.90
2018-05-21T09:11:27.541Z,30.10
2018-05-21T09:13:54.988Z,30.20
2018-05-21T09:16:22.496Z,30.40
2018-05-21T09:18:49.864Z,30.60
2018-05-21T09:21:19.288Z,30.80
2018-05-21T09:23:46.724Z,30.80
2018-05-21T09:26:14.945Z,31.10
2018-05-21T09:28:42.393Z,31.10
2018-05-21T09:31:09.840Z,31.20
2018-05-21T09:33:37.281Z,31.30
2018-05-21T09:36:04.722Z,31.50
2018-05-21T09:38:32.156Z,31.70
2018-05-21T09:41:01.113Z,31.80
2018-05-21T09:43:28.552Z,31.80
2018-05-21T09:45:55.996Z,31.90
2018-05-21T09:48:23.437Z,31.90
2018-05-21T09:50:50.882Z,32.00
2018-05-21T09:53:18.343Z,31.90
2018-05-21T09:55:45.789Z,31.90
2018-05-21T09:58:13.225Z,31.90
2018-05-21T10:00:40.671Z,32.00
2018-05-21T10:03:08.174Z,31.70
2018-05-21T10:05:35.628Z,31.70
2018-05-21T10:08:03.089Z,31.60
2018-05-21T10:10:30.532Z,31.40
2018-05-21T10:12:58.109Z,31.10
2018-05-21T10:15:25.549Z,30.90
2018-05-21T10:17:52.996Z,30.50
2018-05-21T10:20:20.438Z,30.20
2018-05-21T10:22:47.881Z,30.00
2018-05-21T10:25:15.338Z,29.90
2018-05-21T10:27:42.772Z,29.70
2018-05-21T10:30:10.226Z,29.60
2018-05-21T10:32:37.703Z,29.40
2018-05-21T10:35:06.329Z,29.30
2018-05-21T10:37:33.779Z,29.20
2018-05-21T10:40:01.265Z,29.10
2018-05-21T10:42:28.713Z,29.10
2018-05-21T10:44:56.174Z,29.10
2018-05-21T10:47:23.638Z,29.00
2018-05-21T10:49:51.097Z,29.00
2018-05-21T10:52:18.552Z,29.00
2018-05-21T10:54:45.987Z,29.00
2018-05-21T10:57:13.473Z,29.00
2018-05-21T10:59:40.916Z,29.10
2018-05-21T11:02:08.381Z,29.10
2018-05-21T11:04:35.880Z,29.20
2018-05-21T11:07:03.267Z,29.10
2018-05-21T11:09:30.708Z,29.20
2018-05-21T11:11:58.208Z,29.20
2018-05-21T11:14:25.647Z,29.30
2018-05-21T11:16:53.097Z,29.40
2018-05-21T11:19:20.581Z,29.50
2018-05-21T11:21:48.021Z,29.60
2018-05-21T11:24:15.459Z,29.70
2018-05-21T11:26:42.913Z,29.80
2018-05-21T11:29:10.360Z,29.90
2018-05-21T11:31:37.815Z,30.00
2018-05-21T11:34:05.259Z,30.10
2018-05-21T11:36:32.707Z,30.10
2018-05-21T11:39:00.149Z,30.10
2018-05-21T11:41:28.362Z,30.40
2018-05-21T11:43:55.813Z,30.30
2018-05-21T11:46:24.486Z,30.40
2018-05-21T11:48:51.948Z,30.40
2018-05-21T11:51:19.392Z,30.50
2018-05-21T11:53:46.833Z,30.40
2018-05-21T11:56:15.043Z,30.70
2018-05-21T11:58:42.488Z,30.60
2018-05-21T12:01:10.832Z,30.70
2018-05-21T12:03:38.304Z,30.70
2018-05-21T12:08:50.366Z,30.70
2018-05-21T12:11:17.824Z,30.70
2018-05-21T12:13:45.279Z,30.60
2018-05-21T12:16:12.714Z,30.50
2018-05-21T12:18:40.152Z,30.50
2018-05-21T12:21:08.522Z,30.50
2018-05-21T12:23:35.973Z,30.50
2018-05-21T12:26:03.411Z,30.50
2018-05-21T12:28:31.804Z,30.50
2018-05-21T12:31:00.207Z,30.50
2018-05-21T12:33:27.645Z,30.40
2018-05-21T12:35:55.862Z,30.30
2018-05-21T12:38:23.309Z,30.30
2018-05-21T12:40:50.827Z,30.30
2018-05-21T12:43:18.192Z,30.20
2018-05-21T12:45:45.638Z,30.20
2018-05-21T12:48:13.106Z,30.10
2018-05-21T12:50:40.528Z,30.10
2018-05-21T12:53:07.993Z,30.10
2018-05-21T12:55:35.461Z,30.00
2018-05-21T12:58:02.912Z,30.10
2018-05-21T13:00:30.358Z,30.00
2018-05-21T13:02:58.568Z,30.00
2018-05-21T13:05:26.780Z,30.00
2018-05-21T13:07:54.216Z,30.00
2018-05-21T13:10:21.661Z,29.90
2018-05-21T13:12:49.106Z,29.90
2018-05-21T13:15:16.609Z,29.90
2018-05-21T13:17:44.001Z,29.70
2018-05-21T13:20:11.441Z,29.80
2018-05-21T13:22:38.893Z,29.80
2018-05-21T13:25:06.337Z,29.70
2018-05-21T13:27:33.790Z,29.70
2018-05-21T13:30:01.234Z,29.70
2018-05-21T13:32:28.672Z,29.70
2018-05-21T13:34:56.883Z,29.50
2018-05-21T13:37:24.319Z,29.50
2018-05-21T13:39:51.753Z,29.40
2018-05-21T13:42:21.053Z,29.30
2018-05-21T13:44:48.489Z,29.20
2018-05-21T13:47:15.965Z,29.20
2018-05-21T13:49:45.207Z,29.10
2018-05-21T13:52:12.655Z,29.10
2018-05-21T13:54:40.833Z,29.10
2018-05-21T13:57:10.404Z,29.10
2018-05-21T13:59:37.833Z,29.10
2018-05-21T14:02:05.277Z,29.00
2018-05-21T14:04:33.179Z,29.00
2018-05-21T14:07:02.652Z,29.00
2018-05-21T14:09:30.160Z,29.00
2018-05-21T14:11:57.609Z,29.10
2018-05-21T14:14:25.060Z,29.20
2018-05-21T14:16:52.490Z,29.30
2018-05-21T14:19:19.930Z,29.30
2018-05-21T14:21:49.272Z,29.30
2018-05-21T14:24:16.964Z,29.20
2018-05-21T14:26:45.172Z,29.10
2018-05-21T14:29:12.609Z,29.10
2018-05-21T14:31:40.052Z,29.10
2018-05-21T14:34:07.488Z,29.10
2018-05-21T14:36:35.695Z,29.10
2018-05-21T14:39:03.139Z,29.00
2018-05-21T14:41:30.581Z,29.10
2018-05-21T14:43:58.017Z,29.00
2018-05-21T14:46:26.569Z,28.90
2018-05-21T14:48:54.010Z,28.90
2018-05-21T14:51:21.453Z,28.90
2018-05-21T14:53:48.901Z,28.80
2018-05-21T14:56:16.345Z,28.80
2018-05-21T14:58:44.551Z,28.70
2018-05-21T15:01:11.985Z,28.70
2018-05-21T15:03:39.433Z,28.70
2018-05-21T15:06:08.524Z,28.60
2018-05-21T15:08:35.965Z,28.60
2018-05-21T15:11:03.404Z,28.60
2018-05-21T15:13:30.848Z,28.50
2018-05-21T15:15:58.288Z,28.30
2018-05-21T15:18:25.724Z,28.40
2018-05-21T15:20:53.213Z,28.30
2018-05-21T15:23:20.665Z,28.30
2018-05-21T15:25:48.111Z,28.20
2018-05-21T15:28:15.557Z,28.30
2018-05-21T15:30:43.008Z,28.30
2018-05-21T15:33:10.464Z,28.20
2018-05-21T15:35:38.653Z,28.20
2018-05-21T15:38:06.095Z,28.20
2018-05-21T15:40:33.538Z,28.10
2018-05-21T15:43:00.988Z,28.10
2018-05-21T15:45:28.429Z,28.00
2018-05-21T15:47:55.877Z,27.90
2018-05-21T15:50:23.314Z,27.80
2018-05-21T15:52:50.760Z,27.80
2018-05-21T15:55:18.201Z,27.70
2018-05-21T15:57:45.639Z,27.60
2018-05-21T16:00:13.069Z,27.60
2018-05-21T16:02:41.281Z,27.60
2018-05-21T16:05:08.717Z,27.60
2018-05-21T16:07:36.163Z,27.50
2018-05-21T16:10:03.596Z,27.40
2018-05-21T16:12:31.800Z,27.30
2018-05-21T16:14:59.236Z,27.30
2018-05-21T16:17:26.677Z,27.30
2018-05-21T16:19:54.116Z,27.30
2018-05-21T16:22:21.560Z,27.30
2018-05-21T16:24:49.132Z,27.20
2018-05-21T16:27:17.444Z,27.10
2018-05-21T16:29:44.909Z,27.00
2018-05-21T16:32:12.354Z,27.00
2018-05-21T16:34:39.787Z,27.00
2018-05-21T16:37:07.244Z,26.90
2018-05-21T16:39:34.676Z,26.90
2018-05-21T16:42:02.134Z,26.80
2018-05-21T16:44:29.573Z,26.70
2018-05-21T16:47:20.867Z,26.70
2018-05-21T16:49:48.336Z,26.60
2018-05-21T16:52:15.785Z,26.50
2018-05-21T16:54:43.222Z,26.50
2018-05-21T16:57:10.673Z,26.40
2018-05-21T16:59:38.120Z,26.40
2018-05-21T17:02:05.585Z,26.30
2018-05-21T17:04:33.028Z,26.20
2018-05-21T17:07:00.477Z,26.20
2018-05-21T17:09:27.898Z,26.20
2018-05-21T17:11:56.113Z,26.00
2018-05-21T17:14:23.552Z,26.00
2018-05-21T17:16:50.997Z,26.00
2018-05-21T17:19:18.440Z,25.90
2018-05-21T17:21:46.781Z,25.80
2018-05-21T17:24:14.249Z,25.80
2018-05-21T17:26:41.684Z,25.80
2018-05-21T17:29:09.152Z,25.80
2018-05-21T17:31:37.352Z,25.70
2018-05-21T17:34:04.801Z,25.70
2018-05-21T17:36:32.272Z,25.70
2018-05-21T17:38:59.705Z,25.50
2018-05-21T17:41:27.148Z,25.60
2018-05-21T17:43:54.592Z,25.50
2018-05-21T17:46:22.034Z,25.40
2018-05-21T17:48:49.472Z,25.40
2018-05-21T17:51:16.914Z,25.20
2018-05-21T17:53:44.368Z,25.10
2018-05-21T17:56:11.810Z,25.10
2018-05-21T17:58:39.253Z,25.00
2018-05-21T18:01:06.694Z,25.00
2018-05-21T18:03:34.143Z,24.90
2018-05-21T18:06:01.575Z,24.90
2018-05-21T18:08:29.055Z,25.00
2018-05-21T18:10:56.519Z,25.00
2018-05-21T18:13:23.985Z,24.90
2018-05-21T18:15:51.416Z,24.90
2018-05-21T18:18:19.751Z,24.90
2018-05-21T18:20:47.216Z,24.80
2018-05-21T18:23:14.781Z,24.70
2018-05-21T18:25:43.010Z,24.70
2018-05-21T18:28:10.474Z,24.60
2018-05-21T18:30:37.901Z,24.60
2018-05-21T18:33:05.336Z,24.50
2018-05-21T18:35:32.782Z,24.40
2018-05-21T18:38:00.238Z,24.40
2018-05-21T18:40:27.672Z,24.20
2018-05-21T18:42:55.116Z,24.10
2018-05-21T18:45:22.556Z,24.00
2018-05-21T18:47:50.014Z,24.00
2018-05-21T18:50:17.456Z,23.80
2018-05-21T18:52:44.904Z,23.80
2018-05-21T18:55:12.368Z,23.90
2018-05-21T18:57:39.817Z,23.80
2018-05-21T19:00:07.306Z,23.80
2018-05-21T19:02:34.729Z,23.70
2018-05-21T19:05:02.968Z,23.60
2018-05-21T19:07:30.417Z,23.60
2018-05-21T19:09:57.873Z,23.60
2018-05-21T19:12:25.326Z,23.50
2018-05-21T19:14:52.792Z,23.50
2018-05-21T19:17:20.238Z,23.30
2018-05-21T19:19:48.076Z,23.30
2018-05-21T19:22:15.620Z,23.30
2018-05-21T19:24:43.086Z,23.10
2018-05-21T19:27:10.540Z,23.00
2018-05-21T19:29:37.984Z,23.10
2018-05-21T19:32:05.437Z,23.00
2018-05-21T19:34:33.674Z,22.90
2018-05-21T19:37:01.107Z,22.90
2018-05-21T19:39:28.553Z,22.80
2018-05-21T19:41:56.015Z,22.70
2018-05-21T19:44:23.441Z,22.60
2018-05-21T19:46:51.637Z,22.50
2018-05-21T19:49:19.089Z,22.50
2018-05-21T19:51:46.529Z,22.50
2018-05-21T19:54:14.736Z,22.40
2018-05-21T19:56:42.197Z,22.40
2018-05-21T19:59:09.684Z,22.30
2018-05-21T20:01:37.133Z,22.30
2018-05-21T20:04:04.576Z,22.30
2018-05-21T20:06:32.016Z,22.20
2018-05-21T20:08:59.465Z,22.30
2018-05-21T20:11:26.914Z,22.10
2018-05-21T20:13:54.360Z,22.10
2018-05-21T20:16:21.820Z,22.00
2018-05-21T20:18:49.265Z,21.90
2018-05-21T20:21:17.465Z,21.80
2018-05-21T20:23:45.104Z,21.70
2018-05-21T20:26:12.541Z,21.70
2018-05-21T20:28:40.021Z,21.70
2018-05-21T20:31:07.468Z,21.60
2018-05-21T20:33:35.845Z,21.50
2018-05-21T20:36:04.058Z,21.50
2018-05-21T20:38:31.690Z,21.40
2018-05-21T20:40:59.899Z,21.30
2018-05-21T20:43:27.530Z,21.20
2018-05-21T20:45:54.967Z,21.20
2018-05-21T20:48:22.437Z,21.10
2018-05-21T20:50:50.645Z,21.00
2018-05-21T20:53:18.264Z,21.00
2018-05-21T20:55:45.700Z,21.00
2018-05-21T20:58:13.181Z,21.00
2018-05-21T21:00:41.397Z,20.90
2018-05-21T21:03:08.832Z,20.90
2018-05-21T21:05:36.304Z,20.90
2018-05-21T21:08:03.736Z,20.90
2018-05-21T21:10:31.261Z,20.80
2018-05-21T21:12:58.617Z,20.80
2018-05-21T21:15:26.077Z,20.70
2018-05-21T21:17:54.677Z,20.60
2018-05-21T21:20:22.129Z,20.50
2018-05-21T21:22:49.593Z,20.50
2018-05-21T21:25:17.037Z,20.40
2018-05-21T21:27:44.469Z,20.30
2018-05-21T21:30:11.917Z,20.30
2018-05-21T21:32:39.511Z,20.20
2018-05-21T21:35:07.654Z,20.20
2018-05-21T21:37:35.088Z,20.20
2018-05-21T21:40:02.545Z,20.10
2018-05-21T21:42:29.979Z,20.10
2018-05-21T21:44:57.638Z,20.00
2018-05-21T21:47:26.021Z,20.00
2018-05-21T21:49:54.251Z,20.00
2018-05-21T21:52:21.705Z,19.90
2018-05-21T21:54:49.313Z,19.90
2018-05-21T21:57:17.521Z,19.80
2018-05-21T21:59:44.971Z,19.70
2018-05-21T22:02:12.404Z,19.70
2018-05-21T22:04:39.845Z,19.70
2018-05-21T22:07:07.285Z,19.60
2018-05-21T22:09:35.492Z,19.60
2018-05-21T22:12:04.886Z,19.50
2018-05-21T22:14:33.265Z,19.50
2018-05-21T22:17:01.480Z,19.50
2018-05-21T22:19:28.917Z,19.50
2018-05-21T22:21:56.358Z,19.50
2018-05-21T22:24:23.803Z,19.40
2018-05-21T22:26:51.232Z,19.40
2018-05-21T22:29:18.677Z,19.30
2018-05-21T22:31:46.120Z,19.30
2018-05-21T22:34:13.573Z,19.20
2018-05-21T22:36:41.009Z,19.20
2018-05-21T22:39:09.337Z,19.20
2018-05-21T22:41:36.781Z,19.10
2018-05-21T22:44:04.238Z,19.10
2018-05-21T22:46:31.668Z,19.10
2018-05-21T22:48:59.113Z,19.10
2018-05-21T22:51:26.576Z,19.00
2018-05-21T22:53:54.022Z,19.00
2018-05-21T22:56:22.237Z,18.90
2018-05-21T22:58:49.682Z,18.90
2018-05-21T23:01:17.133Z,18.90
2018-05-21T23:03:44.565Z,18.80
2018-05-21T23:06:12.805Z,18.80
2018-05-21T23:08:40.271Z,18.70
2018-05-21T23:11:07.723Z,18.70
2018-05-21T23:13:35.157Z,18.70
2018-05-21T23:16:02.604Z,18.70
2018-05-21T23:18:30.045Z,18.60
2018-05-21T23:20:57.505Z,18.60
2018-05-21T23:23:24.942Z,18.60
2018-05-21T23:25:52.380Z,18.50
2018-05-21T23:28:19.823Z,18.50
2018-05-21T23:30:47.272Z,18.40
2018-05-21T23:33:14.715Z,18.40
2018-05-21T23:35:42.928Z,18.20
2018-05-21T23:38:10.360Z,18.20
2018-05-21T23:40:37.834Z,18.20
2018-05-21T23:43:05.273Z,18.10
2018-05-21T23:45:32.733Z,18.10
2018-05-21T23:48:00.175Z,18.10
2018-05-21T23:50:27.632Z,18.10
2018-05-21T23:52:55.090Z,18.00
2018-05-21T23:55:22.528Z,18.00
2018-05-21T23:57:49.961Z,18.00
